sensor_id;sensor_type;location;lat;lon;timestamp;P1;durP1;ratioP1;P2;durP2;ratioP2
6013;SDS011;3035;49.928;8.410;2023-12-29T00:01:29;2.23;;;2.03;;
6013;SDS011;3035;49.928;8.410;2023-12-29T00:03:57;2.63;;;2.30;;
6013;SDS011;3035;49.928;8.410;2023-12-29T00:06:25;3.10;;;2.50;;
6013;SDS011;3035;49.928;8.410;2023-12-29T00:08:53;2.50;;;2.20;;
6013;SDS011;3035;49.928;8.410;2023-12-29T00:11:22;3.53;;;2.13;;
6013;SDS011;3035;49.928;8.410;2023-12-29T00:13:50;2.50;;;2.30;;
6013;SDS011;3035;49.928;8.410;2023-12-29T00:16:18;2.23;;;2.03;;
6013;SDS011;3035;49.928;8.410;2023-12-29T00:18:46;2.03;;;1.83;;
6013;SDS011;3035;49.928;8.410;2023-12-29T00:21:14;2.00;;;1.90;;
6013;SDS011;3035;49.928;8.410;2023-12-29T00:23:42;2.90;;;2.10;;
6013;SDS011;3035;49.928;8.410;2023-12-29T00:26:10;2.43;;;2.10;;
6013;SDS011;3035;49.928;8.410;2023-12-29T00:28:39;6.90;;;1.97;;
6013;SDS011;3035;49.928;8.410;2023-12-29T00:31:06;2.97;;;1.70;;
6013;SDS011;3035;49.928;8.410;2023-12-29T00:33:34;3.50;;;1.80;;
6013;SDS011;3035;49.928;8.410;2023-12-29T00:36:02;2.33;;;1.90;;
6013;SDS011;3035;49.928;8.410;2023-12-29T00:38:30;2.47;;;2.23;;
6013;SDS011;3035;49.928;8.410;2023-12-29T00:40:58;3.83;;;1.87;;
6013;SDS011;3035;49.928;8.410;2023-12-29T00:43:26;3.00;;;1.60;;
6013;SDS011;3035;49.928;8.410;2023-12-29T00:45:55;3.83;;;2.30;;
6013;SDS011;3035;49.928;8.410;2023-12-29T00:48:22;1.43;;;1.33;;
6013;SDS011;3035;49.928;8.410;2023-12-29T00:50:49;1.77;;;1.47;;
6013;SDS011;3035;49.928;8.410;2023-12-29T00:53:17;3.47;;;1.70;;
6013;SDS011;3035;49.928;8.410;2023-12-29T00:55:44;2.20;;;2.00;;
6013;SDS011;3035;49.928;8.410;2023-12-29T00:58:12;3.07;;;2.40;;
6013;SDS011;3035;49.928;8.410;2023-12-29T01:00:39;1.80;;;1.70;;
6013;SDS011;3035;49.928;8.410;2023-12-29T01:03:07;5.97;;;2.33;;
6013;SDS011;3035;49.928;8.410;2023-12-29T01:05:34;2.27;;;1.67;;
6013;SDS011;3035;49.928;8.410;2023-12-29T01:08:01;2.00;;;1.80;;
6013;SDS011;3035;49.928;8.410;2023-12-29T01:10:29;3.43;;;1.93;;
6013;SDS011;3035;49.928;8.410;2023-12-29T01:12:56;1.80;;;1.70;;
6013;SDS011;3035;49.928;8.410;2023-12-29T01:15:24;2.13;;;1.93;;
6013;SDS011;3035;49.928;8.410;2023-12-29T01:17:51;4.03;;;2.53;;
6013;SDS011;3035;49.928;8.410;2023-12-29T01:20:19;7.43;;;2.20;;
6013;SDS011;3035;49.928;8.410;2023-12-29T01:22:46;2.30;;;2.10;;
6013;SDS011;3035;49.928;8.410;2023-12-29T01:25:14;1.93;;;1.70;;
6013;SDS011;3035;49.928;8.410;2023-12-29T01:27:41;2.23;;;1.87;;
6013;SDS011;3035;49.928;8.410;2023-12-29T01:30:08;1.70;;;1.60;;
6013;SDS011;3035;49.928;8.410;2023-12-29T01:32:36;4.33;;;1.87;;
6013;SDS011;3035;49.928;8.410;2023-12-29T01:35:03;3.20;;;1.70;;
6013;SDS011;3035;49.928;8.410;2023-12-29T01:37:31;1.87;;;1.70;;
6013;SDS011;3035;49.928;8.410;2023-12-29T01:39:59;3.47;;;1.53;;
6013;SDS011;3035;49.928;8.410;2023-12-29T01:42:26;6.43;;;2.07;;
6013;SDS011;3035;49.928;8.410;2023-12-29T01:44:53;2.33;;;2.13;;
6013;SDS011;3035;49.928;8.410;2023-12-29T01:47:21;3.73;;;1.73;;
6013;SDS011;3035;49.928;8.410;2023-12-29T01:49:49;1.70;;;1.60;;
6013;SDS011;3035;49.928;8.410;2023-12-29T01:52:16;3.23;;;2.17;;
6013;SDS011;3035;49.928;8.410;2023-12-29T01:54:43;1.50;;;1.40;;
6013;SDS011;3035;49.928;8.410;2023-12-29T01:57:11;2.60;;;1.90;;
6013;SDS011;3035;49.928;8.410;2023-12-29T01:59:38;2.60;;;2.00;;
6013;SDS011;3035;49.928;8.410;2023-12-29T02:02:05;2.10;;;1.90;;
6013;SDS011;3035;49.928;8.410;2023-12-29T02:04:33;2.13;;;1.90;;
6013;SDS011;3035;49.928;8.410;2023-12-29T02:07:01;1.60;;;1.47;;
6013;SDS011;3035;49.928;8.410;2023-12-29T02:09:28;5.60;;;1.80;;
6013;SDS011;3035;49.928;8.410;2023-12-29T02:11:55;2.90;;;1.40;;
6013;SDS011;3035;49.928;8.410;2023-12-29T02:14:23;1.90;;;1.80;;
6013;SDS011;3035;49.928;8.410;2023-12-29T02:16:52;2.50;;;1.47;;
6013;SDS011;3035;49.928;8.410;2023-12-29T02:19:40;3.63;;;1.80;;
6013;SDS011;3035;49.928;8.410;2023-12-29T02:22:09;2.30;;;2.10;;
6013;SDS011;3035;49.928;8.410;2023-12-29T02:24:34;1.83;;;1.73;;
6013;SDS011;3035;49.928;8.410;2023-12-29T02:27:07;2.70;;;1.90;;
6013;SDS011;3035;49.928;8.410;2023-12-29T02:29:38;3.67;;;1.80;;
6013;SDS011;3035;49.928;8.410;2023-12-29T02:32:05;2.80;;;1.63;;
6013;SDS011;3035;49.928;8.410;2023-12-29T02:34:32;2.10;;;1.67;;
6013;SDS011;3035;49.928;8.410;2023-12-29T02:37:00;4.53;;;1.80;;
6013;SDS011;3035;49.928;8.410;2023-12-29T02:39:27;1.90;;;1.70;;
6013;SDS011;3035;49.928;8.410;2023-12-29T02:41:54;1.90;;;1.70;;
6013;SDS011;3035;49.928;8.410;2023-12-29T02:44:22;5.63;;;1.90;;
6013;SDS011;3035;49.928;8.410;2023-12-29T02:46:49;3.13;;;1.70;;
6013;SDS011;3035;49.928;8.410;2023-12-29T02:49:17;4.20;;;1.83;;
6013;SDS011;3035;49.928;8.410;2023-12-29T02:51:44;1.53;;;1.43;;
6013;SDS011;3035;49.928;8.410;2023-12-29T02:54:12;6.83;;;1.73;;
6013;SDS011;3035;49.928;8.410;2023-12-29T02:56:39;3.67;;;2.00;;
6013;SDS011;3035;49.928;8.410;2023-12-29T02:59:07;3.73;;;1.73;;
6013;SDS011;3035;49.928;8.410;2023-12-29T03:01:34;2.70;;;1.60;;
6013;SDS011;3035;49.928;8.410;2023-12-29T03:04:01;1.67;;;1.40;;
6013;SDS011;3035;49.928;8.410;2023-12-29T03:06:29;2.63;;;1.60;;
6013;SDS011;3035;49.928;8.410;2023-12-29T03:08:56;2.60;;;1.30;;
6013;SDS011;3035;49.928;8.410;2023-12-29T03:11:24;2.27;;;1.67;;
6013;SDS011;3035;49.928;8.410;2023-12-29T03:13:51;2.10;;;1.33;;
6013;SDS011;3035;49.928;8.410;2023-12-29T03:16:19;2.60;;;1.60;;
6013;SDS011;3035;49.928;8.410;2023-12-29T03:18:46;1.57;;;1.40;;
6013;SDS011;3035;49.928;8.410;2023-12-29T03:21:13;3.30;;;1.53;;
6013;SDS011;3035;49.928;8.410;2023-12-29T03:23:41;3.63;;;1.77;;
6013;SDS011;3035;49.928;8.410;2023-12-29T03:26:08;4.10;;;1.60;;
6013;SDS011;3035;49.928;8.410;2023-12-29T03:28:36;2.10;;;1.50;;
6013;SDS011;3035;49.928;8.410;2023-12-29T03:31:03;2.57;;;1.70;;
6013;SDS011;3035;49.928;8.410;2023-12-29T03:33:31;2.30;;;1.40;;
6013;SDS011;3035;49.928;8.410;2023-12-29T03:35:58;2.40;;;1.40;;
6013;SDS011;3035;49.928;8.410;2023-12-29T03:38:26;1.87;;;1.40;;
6013;SDS011;3035;49.928;8.410;2023-12-29T03:40:53;2.80;;;1.10;;
6013;SDS011;3035;49.928;8.410;2023-12-29T03:43:20;2.97;;;1.27;;
6013;SDS011;3035;49.928;8.410;2023-12-29T03:45:48;3.53;;;1.50;;
6013;SDS011;3035;49.928;8.410;2023-12-29T03:48:15;1.57;;;1.37;;
6013;SDS011;3035;49.928;8.410;2023-12-29T03:50:43;1.80;;;1.27;;
6013;SDS011;3035;49.928;8.410;2023-12-29T03:53:10;2.43;;;1.30;;
6013;SDS011;3035;49.928;8.410;2023-12-29T03:55:38;4.43;;;1.83;;
6013;SDS011;3035;49.928;8.410;2023-12-29T03:58:05;1.53;;;1.30;;
6013;SDS011;3035;49.928;8.410;2023-12-29T04:00:32;1.43;;;1.30;;
6013;SDS011;3035;49.928;8.410;2023-12-29T04:03:00;2.23;;;1.60;;
6013;SDS011;3035;49.928;8.410;2023-12-29T04:05:27;3.20;;;1.87;;
6013;SDS011;3035;49.928;8.410;2023-12-29T04:07:55;1.43;;;1.17;;
6013;SDS011;3035;49.928;8.410;2023-12-29T04:10:24;1.83;;;1.70;;
6013;SDS011;3035;49.928;8.410;2023-12-29T04:12:52;4.33;;;1.60;;
6013;SDS011;3035;49.928;8.410;2023-12-29T04:15:20;1.67;;;1.40;;
6013;SDS011;3035;49.928;8.410;2023-12-29T04:17:48;4.40;;;1.50;;
6013;SDS011;3035;49.928;8.410;2023-12-29T04:20:16;1.40;;;1.10;;
6013;SDS011;3035;49.928;8.410;2023-12-29T04:22:46;4.50;;;2.40;;
6013;SDS011;3035;49.928;8.410;2023-12-29T04:25:12;2.40;;;1.40;;
6013;SDS011;3035;49.928;8.410;2023-12-29T04:27:41;1.50;;;1.40;;
6013;SDS011;3035;49.928;8.410;2023-12-29T04:30:08;2.67;;;1.47;;
6013;SDS011;3035;49.928;8.410;2023-12-29T04:32:36;2.00;;;1.60;;
6013;SDS011;3035;49.928;8.410;2023-12-29T04:35:05;1.93;;;1.10;;
6013;SDS011;3035;49.928;8.410;2023-12-29T04:37:34;2.13;;;1.20;;
6013;SDS011;3035;49.928;8.410;2023-12-29T04:40:01;2.70;;;1.90;;
6013;SDS011;3035;49.928;8.410;2023-12-29T04:42:29;2.70;;;1.40;;
6013;SDS011;3035;49.928;8.410;2023-12-29T04:44:58;2.43;;;1.50;;
6013;SDS011;3035;49.928;8.410;2023-12-29T04:47:25;1.63;;;1.53;;
6013;SDS011;3035;49.928;8.410;2023-12-29T04:49:54;4.57;;;1.40;;
6013;SDS011;3035;49.928;8.410;2023-12-29T04:52:22;2.50;;;1.30;;
6013;SDS011;3035;49.928;8.410;2023-12-29T04:54:50;1.37;;;1.10;;
6013;SDS011;3035;49.928;8.410;2023-12-29T04:57:18;2.63;;;1.47;;
6013;SDS011;3035;49.928;8.410;2023-12-29T04:59:46;1.43;;;1.30;;
6013;SDS011;3035;49.928;8.410;2023-12-29T05:02:14;6.27;;;1.70;;
6013;SDS011;3035;49.928;8.410;2023-12-29T05:04:42;3.33;;;1.40;;
6013;SDS011;3035;49.928;8.410;2023-12-29T05:07:11;2.70;;;1.50;;
6013;SDS011;3035;49.928;8.410;2023-12-29T05:09:38;4.43;;;1.70;;
6013;SDS011;3035;49.928;8.410;2023-12-29T05:12:06;1.63;;;1.50;;
6013;SDS011;3035;49.928;8.410;2023-12-29T05:20:24;4.43;;;1.70;;
6013;SDS011;3035;49.928;8.410;2023-12-29T05:22:53;1.67;;;1.43;;
6013;SDS011;3035;49.928;8.410;2023-12-29T05:25:21;1.83;;;1.33;;
6013;SDS011;3035;49.928;8.410;2023-12-29T05:27:49;2.73;;;1.83;;
6013;SDS011;3035;49.928;8.410;2023-12-29T05:30:18;3.60;;;1.30;;
6013;SDS011;3035;49.928;8.410;2023-12-29T05:32:45;2.20;;;2.00;;
6013;SDS011;3035;49.928;8.410;2023-12-29T05:35:13;2.60;;;1.43;;
6013;SDS011;3035;49.928;8.410;2023-12-29T05:37:42;1.87;;;1.60;;
6013;SDS011;3035;49.928;8.410;2023-12-29T05:40:11;2.30;;;1.53;;
6013;SDS011;3035;49.928;8.410;2023-12-29T05:42:38;2.83;;;1.87;;
6013;SDS011;3035;49.928;8.410;2023-12-29T05:45:06;2.40;;;1.50;;
6013;SDS011;3035;49.928;8.410;2023-12-29T05:47:33;4.53;;;1.70;;
6013;SDS011;3035;49.928;8.410;2023-12-29T05:50:01;1.90;;;1.50;;
6013;SDS011;3035;49.928;8.410;2023-12-29T05:52:28;3.30;;;1.50;;
6013;SDS011;3035;49.928;8.410;2023-12-29T05:54:56;3.20;;;1.80;;
6013;SDS011;3035;49.928;8.410;2023-12-29T05:57:23;2.60;;;1.40;;
6013;SDS011;3035;49.928;8.410;2023-12-29T05:59:51;1.30;;;1.20;;
6013;SDS011;3035;49.928;8.410;2023-12-29T06:02:18;2.63;;;1.60;;
6013;SDS011;3035;49.928;8.410;2023-12-29T06:04:46;1.73;;;1.63;;
6013;SDS011;3035;49.928;8.410;2023-12-29T06:07:13;2.10;;;1.37;;
6013;SDS011;3035;49.928;8.410;2023-12-29T06:09:40;1.60;;;1.40;;
6013;SDS011;3035;49.928;8.410;2023-12-29T06:12:08;2.40;;;1.57;;
6013;SDS011;3035;49.928;8.410;2023-12-29T06:14:36;2.50;;;1.30;;
6013;SDS011;3035;49.928;8.410;2023-12-29T06:17:03;1.43;;;1.33;;
6013;SDS011;3035;49.928;8.410;2023-12-29T06:19:30;3.87;;;1.50;;
6013;SDS011;3035;49.928;8.410;2023-12-29T06:21:58;2.97;;;1.53;;
6013;SDS011;3035;49.928;8.410;2023-12-29T06:24:25;4.00;;;1.83;;
6013;SDS011;3035;49.928;8.410;2023-12-29T06:26:53;1.60;;;1.50;;
6013;SDS011;3035;49.928;8.410;2023-12-29T06:29:20;2.97;;;1.20;;
6013;SDS011;3035;49.928;8.410;2023-12-29T06:31:48;5.90;;;1.50;;
6013;SDS011;3035;49.928;8.410;2023-12-29T06:34:17;2.80;;;1.70;;
6013;SDS011;3035;49.928;8.410;2023-12-29T06:36:45;2.30;;;1.47;;
6013;SDS011;3035;49.928;8.410;2023-12-29T06:39:13;2.77;;;1.77;;
6013;SDS011;3035;49.928;8.410;2023-12-29T06:41:41;3.20;;;1.60;;
6013;SDS011;3035;49.928;8.410;2023-12-29T06:44:09;3.23;;;1.60;;
6013;SDS011;3035;49.928;8.410;2023-12-29T06:46:38;2.90;;;1.63;;
6013;SDS011;3035;49.928;8.410;2023-12-29T06:49:07;3.03;;;1.70;;
6013;SDS011;3035;49.928;8.410;2023-12-29T06:51:33;3.53;;;1.40;;
6013;SDS011;3035;49.928;8.410;2023-12-29T06:54:01;3.50;;;1.53;;
6013;SDS011;3035;49.928;8.410;2023-12-29T06:56:28;2.87;;;1.87;;
6013;SDS011;3035;49.928;8.410;2023-12-29T06:58:56;3.00;;;1.43;;
6013;SDS011;3035;49.928;8.410;2023-12-29T07:01:23;4.10;;;1.77;;
6013;SDS011;3035;49.928;8.410;2023-12-29T07:03:51;2.50;;;1.73;;
6013;SDS011;3035;49.928;8.410;2023-12-29T07:06:18;2.93;;;1.63;;
6013;SDS011;3035;49.928;8.410;2023-12-29T07:08:45;2.60;;;1.30;;
6013;SDS011;3035;49.928;8.410;2023-12-29T07:11:13;2.03;;;1.63;;
6013;SDS011;3035;49.928;8.410;2023-12-29T07:13:40;3.10;;;1.50;;
6013;SDS011;3035;49.928;8.410;2023-12-29T07:16:08;2.57;;;1.60;;
6013;SDS011;3035;49.928;8.410;2023-12-29T07:18:35;2.20;;;1.67;;
6013;SDS011;3035;49.928;8.410;2023-12-29T07:21:03;1.50;;;1.30;;
6013;SDS011;3035;49.928;8.410;2023-12-29T07:23:30;2.97;;;1.40;;
6013;SDS011;3035;49.928;8.410;2023-12-29T07:25:58;4.07;;;2.40;;
6013;SDS011;3035;49.928;8.410;2023-12-29T07:28:25;2.90;;;2.00;;
6013;SDS011;3035;49.928;8.410;2023-12-29T07:30:53;2.30;;;1.40;;
6013;SDS011;3035;49.928;8.410;2023-12-29T07:33:20;4.93;;;1.70;;
6013;SDS011;3035;49.928;8.410;2023-12-29T07:35:48;1.93;;;1.60;;
6013;SDS011;3035;49.928;8.410;2023-12-29T07:38:15;2.87;;;1.60;;
6013;SDS011;3035;49.928;8.410;2023-12-29T07:40:43;3.20;;;1.53;;
6013;SDS011;3035;49.928;8.410;2023-12-29T07:43:10;3.40;;;1.43;;
6013;SDS011;3035;49.928;8.410;2023-12-29T07:45:37;1.93;;;1.43;;
6013;SDS011;3035;49.928;8.410;2023-12-29T07:48:05;2.13;;;1.47;;
6013;SDS011;3035;49.928;8.410;2023-12-29T07:50:33;1.40;;;1.27;;
6013;SDS011;3035;49.928;8.410;2023-12-29T07:53:00;3.67;;;1.50;;
6013;SDS011;3035;49.928;8.410;2023-12-29T07:55:28;2.40;;;1.90;;
6013;SDS011;3035;49.928;8.410;2023-12-29T07:57:56;2.00;;;1.63;;
6013;SDS011;3035;49.928;8.410;2023-12-29T08:00:23;3.57;;;1.53;;
6013;SDS011;3035;49.928;8.410;2023-12-29T08:02:51;2.90;;;1.40;;
6013;SDS011;3035;49.928;8.410;2023-12-29T08:05:18;1.80;;;1.63;;
6013;SDS011;3035;49.928;8.410;2023-12-29T08:07:46;2.30;;;1.13;;
6013;SDS011;3035;49.928;8.410;2023-12-29T08:10:13;1.50;;;1.30;;
6013;SDS011;3035;49.928;8.410;2023-12-29T08:12:40;6.63;;;1.77;;
6013;SDS011;3035;49.928;8.410;2023-12-29T08:15:08;3.63;;;1.30;;
6013;SDS011;3035;49.928;8.410;2023-12-29T08:17:35;2.30;;;1.40;;
6013;SDS011;3035;49.928;8.410;2023-12-29T08:20:03;5.97;;;1.73;;
6013;SDS011;3035;49.928;8.410;2023-12-29T08:22:31;1.87;;;1.63;;
6013;SDS011;3035;49.928;8.410;2023-12-29T08:24:58;2.57;;;1.13;;
6013;SDS011;3035;49.928;8.410;2023-12-29T08:27:26;2.40;;;1.00;;
6013;SDS011;3035;49.928;8.410;2023-12-29T08:29:53;1.57;;;1.23;;
6013;SDS011;3035;49.928;8.410;2023-12-29T08:32:21;3.77;;;1.97;;
6013;SDS011;3035;49.928;8.410;2023-12-29T08:34:48;4.60;;;1.43;;
6013;SDS011;3035;49.928;8.410;2023-12-29T08:37:16;5.33;;;1.60;;
6013;SDS011;3035;49.928;8.410;2023-12-29T08:39:43;1.43;;;1.33;;
6013;SDS011;3035;49.928;8.410;2023-12-29T08:42:10;1.57;;;1.30;;
6013;SDS011;3035;49.928;8.410;2023-12-29T08:44:38;3.90;;;1.60;;
6013;SDS011;3035;49.928;8.410;2023-12-29T08:47:05;8.30;;;3.70;;
6013;SDS011;3035;49.928;8.410;2023-12-29T08:49:36;4.37;;;2.00;;
6013;SDS011;3035;49.928;8.410;2023-12-29T08:52:04;3.97;;;1.87;;
6013;SDS011;3035;49.928;8.410;2023-12-29T08:54:31;4.90;;;2.30;;
6013;SDS011;3035;49.928;8.410;2023-12-29T08:56:58;2.23;;;1.60;;
6013;SDS011;3035;49.928;8.410;2023-12-29T08:59:26;5.90;;;1.70;;
6013;SDS011;3035;49.928;8.410;2023-12-29T09:01:53;1.33;;;1.10;;
6013;SDS011;3035;49.928;8.410;2023-12-29T09:04:21;4.63;;;1.40;;
6013;SDS011;3035;49.928;8.410;2023-12-29T09:06:48;3.07;;;1.40;;
6013;SDS011;3035;49.928;8.410;2023-12-29T09:09:16;0.80;;;0.80;;
6013;SDS011;3035;49.928;8.410;2023-12-29T09:11:45;2.27;;;1.20;;
6013;SDS011;3035;49.928;8.410;2023-12-29T09:14:11;5.00;;;2.20;;
6013;SDS011;3035;49.928;8.410;2023-12-29T09:16:38;3.67;;;1.57;;
6013;SDS011;3035;49.928;8.410;2023-12-29T09:19:05;2.10;;;1.73;;
6013;SDS011;3035;49.928;8.410;2023-12-29T09:21:33;3.00;;;1.70;;
6013;SDS011;3035;49.928;8.410;2023-12-29T09:24:00;2.93;;;1.50;;
6013;SDS011;3035;49.928;8.410;2023-12-29T09:26:28;4.00;;;1.40;;
6013;SDS011;3035;49.928;8.410;2023-12-29T09:28:55;1.67;;;1.40;;
6013;SDS011;3035;49.928;8.410;2023-12-29T09:31:23;3.30;;;2.30;;
6013;SDS011;3035;49.928;8.410;2023-12-29T09:33:50;3.00;;;1.10;;
6013;SDS011;3035;49.928;8.410;2023-12-29T09:36:18;2.10;;;1.10;;
6013;SDS011;3035;49.928;8.410;2023-12-29T09:38:45;13.30;;;5.93;;
6013;SDS011;3035;49.928;8.410;2023-12-29T09:41:14;17.23;;;7.00;;
6013;SDS011;3035;49.928;8.410;2023-12-29T09:43:40;7.10;;;4.23;;
6013;SDS011;3035;49.928;8.410;2023-12-29T09:46:08;8.00;;;5.00;;
6013;SDS011;3035;49.928;8.410;2023-12-29T09:48:36;4.03;;;2.00;;
6013;SDS011;3035;49.928;8.410;2023-12-29T09:51:04;2.43;;;2.03;;
6013;SDS011;3035;49.928;8.410;2023-12-29T09:53:31;2.10;;;1.90;;
6013;SDS011;3035;49.928;8.410;2023-12-29T09:55:58;2.03;;;1.53;;
6013;SDS011;3035;49.928;8.410;2023-12-29T09:58:26;3.07;;;2.03;;
6013;SDS011;3035;49.928;8.410;2023-12-29T10:00:53;1.10;;;1.00;;
6013;SDS011;3035;49.928;8.410;2023-12-29T10:03:20;3.20;;;1.57;;
6013;SDS011;3035;49.928;8.410;2023-12-29T10:05:49;2.43;;;1.60;;
6013;SDS011;3035;49.928;8.410;2023-12-29T10:08:16;2.03;;;1.20;;
6013;SDS011;3035;49.928;8.410;2023-12-29T10:10:44;2.20;;;1.20;;
6013;SDS011;3035;49.928;8.410;2023-12-29T10:13:12;3.20;;;1.10;;
6013;SDS011;3035;49.928;8.410;2023-12-29T10:15:47;9.60;;;1.73;;
6013;SDS011;3035;49.928;8.410;2023-12-29T10:18:32;5.27;;;2.33;;
6013;SDS011;3035;49.928;8.410;2023-12-29T10:21:01;1.37;;;1.27;;
6013;SDS011;3035;49.928;8.410;2023-12-29T10:23:28;1.33;;;1.17;;
6013;SDS011;3035;49.928;8.410;2023-12-29T10:26:05;3.13;;;1.37;;
6013;SDS011;3035;49.928;8.410;2023-12-29T10:28:33;2.50;;;1.30;;
6013;SDS011;3035;49.928;8.410;2023-12-29T10:31:01;1.93;;;1.10;;
6013;SDS011;3035;49.928;8.410;2023-12-29T10:33:29;3.37;;;1.13;;
6013;SDS011;3035;49.928;8.410;2023-12-29T10:35:58;1.57;;;1.17;;
6013;SDS011;3035;49.928;8.410;2023-12-29T10:38:26;5.40;;;1.30;;
6013;SDS011;3035;49.928;8.410;2023-12-29T10:40:53;1.87;;;1.27;;
6013;SDS011;3035;49.928;8.410;2023-12-29T10:43:24;3.50;;;1.67;;
6013;SDS011;3035;49.928;8.410;2023-12-29T10:46:05;3.20;;;1.20;;
6013;SDS011;3035;49.928;8.410;2023-12-29T10:48:21;2.40;;;1.10;;
6013;SDS011;3035;49.928;8.410;2023-12-29T10:50:51;2.20;;;1.10;;
6013;SDS011;3035;49.928;8.410;2023-12-29T10:53:19;3.53;;;1.20;;
6013;SDS011;3035;49.928;8.410;2023-12-29T10:55:46;3.40;;;1.30;;
6013;SDS011;3035;49.928;8.410;2023-12-29T10:58:15;6.40;;;1.43;;
6013;SDS011;3035;49.928;8.410;2023-12-29T11:00:41;3.20;;;1.67;;
6013;SDS011;3035;49.928;8.410;2023-12-29T11:03:10;4.37;;;1.33;;
6013;SDS011;3035;49.928;8.410;2023-12-29T11:05:36;2.60;;;1.17;;
6013;SDS011;3035;49.928;8.410;2023-12-29T11:08:04;1.83;;;1.30;;
6013;SDS011;3035;49.928;8.410;2023-12-29T11:10:31;4.40;;;1.30;;
6013;SDS011;3035;49.928;8.410;2023-12-29T11:12:59;1.90;;;1.40;;
6013;SDS011;3035;49.928;8.410;2023-12-29T11:15:26;2.40;;;1.50;;
6013;SDS011;3035;49.928;8.410;2023-12-29T11:17:53;3.53;;;1.70;;
6013;SDS011;3035;49.928;8.410;2023-12-29T11:20:21;3.13;;;1.63;;
6013;SDS011;3035;49.928;8.410;2023-12-29T11:22:48;1.27;;;1.17;;
6013;SDS011;3035;49.928;8.410;2023-12-29T11:25:16;2.40;;;1.10;;
6013;SDS011;3035;49.928;8.410;2023-12-29T11:27:43;2.20;;;1.13;;
6013;SDS011;3035;49.928;8.410;2023-12-29T11:30:12;4.07;;;1.70;;
6013;SDS011;3035;49.928;8.410;2023-12-29T11:32:44;2.80;;;1.63;;
6013;SDS011;3035;49.928;8.410;2023-12-29T11:35:13;2.60;;;1.33;;
6013;SDS011;3035;49.928;8.410;2023-12-29T11:37:59;4.00;;;1.57;;
6013;SDS011;3035;49.928;8.410;2023-12-29T11:40:25;2.30;;;1.00;;
6013;SDS011;3035;49.928;8.410;2023-12-29T11:43:05;5.67;;;1.83;;
6013;SDS011;3035;49.928;8.410;2023-12-29T11:45:32;1.63;;;1.47;;
6013;SDS011;3035;49.928;8.410;2023-12-29T11:47:59;3.07;;;1.20;;
6013;SDS011;3035;49.928;8.410;2023-12-29T11:50:29;3.20;;;1.20;;
6013;SDS011;3035;49.928;8.410;2023-12-29T11:52:55;1.10;;;1.00;;
6013;SDS011;3035;49.928;8.410;2023-12-29T11:55:27;8.80;;;1.17;;
6013;SDS011;3035;49.928;8.410;2023-12-29T11:57:50;2.70;;;0.93;;
6013;SDS011;3035;49.928;8.410;2023-12-29T12:00:18;2.10;;;1.10;;
6013;SDS011;3035;49.928;8.410;2023-12-29T12:02:45;1.10;;;0.90;;
6013;SDS011;3035;49.928;8.410;2023-12-29T12:05:13;3.13;;;1.00;;
6013;SDS011;3035;49.928;8.410;2023-12-29T12:07:56;2.73;;;1.20;;
6013;SDS011;3035;49.928;8.410;2023-12-29T12:10:28;4.43;;;1.00;;
6013;SDS011;3035;49.928;8.410;2023-12-29T12:12:57;9.40;;;1.40;;
6013;SDS011;3035;49.928;8.410;2023-12-29T12:15:33;2.30;;;1.10;;
6013;SDS011;3035;49.928;8.410;2023-12-29T12:18:01;5.37;;;1.00;;
6013;SDS011;3035;49.928;8.410;2023-12-29T12:20:29;3.07;;;1.17;;
6013;SDS011;3035;49.928;8.410;2023-12-29T12:22:59;5.70;;;1.10;;
6013;SDS011;3035;49.928;8.410;2023-12-29T12:25:26;4.87;;;1.27;;
6013;SDS011;3035;49.928;8.410;2023-12-29T12:27:53;3.43;;;1.20;;
6013;SDS011;3035;49.928;8.410;2023-12-29T12:30:21;3.10;;;1.23;;
6013;SDS011;3035;49.928;8.410;2023-12-29T12:35:21;2.23;;;1.30;;
6013;SDS011;3035;49.928;8.410;2023-12-29T12:37:49;1.23;;;1.00;;
6013;SDS011;3035;49.928;8.410;2023-12-29T12:42:51;1.40;;;1.10;;
6013;SDS011;3035;49.928;8.410;2023-12-29T12:45:19;2.37;;;1.00;;
6013;SDS011;3035;49.928;8.410;2023-12-29T12:47:49;2.43;;;1.20;;
6013;SDS011;3035;49.928;8.410;2023-12-29T12:50:13;3.40;;;1.37;;
6013;SDS011;3035;49.928;8.410;2023-12-29T12:52:41;1.00;;;0.90;;
6013;SDS011;3035;49.928;8.410;2023-12-29T12:55:08;0.80;;;0.80;;
6013;SDS011;3035;49.928;8.410;2023-12-29T12:57:36;1.80;;;1.10;;
6013;SDS011;3035;49.928;8.410;2023-12-29T13:00:03;5.80;;;0.90;;
6013;SDS011;3035;49.928;8.410;2023-12-29T13:02:31;2.20;;;1.17;;
6013;SDS011;3035;49.928;8.410;2023-12-29T13:04:59;6.60;;;1.50;;
6013;SDS011;3035;49.928;8.410;2023-12-29T13:07:26;1.53;;;1.07;;
6013;SDS011;3035;49.928;8.410;2023-12-29T13:09:55;2.53;;;1.43;;
6013;SDS011;3035;49.928;8.410;2023-12-29T13:12:21;1.73;;;1.00;;
6013;SDS011;3035;49.928;8.410;2023-12-29T13:14:49;2.67;;;1.10;;
6013;SDS011;3035;49.928;8.410;2023-12-29T13:17:16;0.90;;;0.90;;
6013;SDS011;3035;49.928;8.410;2023-12-29T13:19:43;2.83;;;1.13;;
6013;SDS011;3035;49.928;8.410;2023-12-29T13:22:11;1.33;;;1.10;;
6013;SDS011;3035;49.928;8.410;2023-12-29T13:24:43;1.47;;;1.37;;
6013;SDS011;3035;49.928;8.410;2023-12-29T13:27:11;1.07;;;0.90;;
6013;SDS011;3035;49.928;8.410;2023-12-29T13:29:38;2.53;;;1.70;;
6013;SDS011;3035;49.928;8.410;2023-12-29T13:32:10;1.57;;;1.10;;
6013;SDS011;3035;49.928;8.410;2023-12-29T13:40:07;2.80;;;1.53;;
6013;SDS011;3035;49.928;8.410;2023-12-29T13:42:45;2.30;;;1.47;;
6013;SDS011;3035;49.928;8.410;2023-12-29T13:45:13;3.17;;;1.20;;
6013;SDS011;3035;49.928;8.410;2023-12-29T13:47:40;4.30;;;1.33;;
6013;SDS011;3035;49.928;8.410;2023-12-29T13:50:08;4.00;;;1.70;;
6013;SDS011;3035;49.928;8.410;2023-12-29T13:52:36;2.57;;;1.30;;
6013;SDS011;3035;49.928;8.410;2023-12-29T13:55:04;1.60;;;1.00;;
6013;SDS011;3035;49.928;8.410;2023-12-29T13:57:33;3.17;;;1.00;;
6013;SDS011;3035;49.928;8.410;2023-12-29T14:02:39;0.97;;;0.80;;
6013;SDS011;3035;49.928;8.410;2023-12-29T14:07:45;1.83;;;0.83;;
6013;SDS011;3035;49.928;8.410;2023-12-29T14:10:12;0.80;;;0.80;;
6013;SDS011;3035;49.928;8.410;2023-12-29T14:12:40;1.73;;;0.80;;
6013;SDS011;3035;49.928;8.410;2023-12-29T14:15:07;1.43;;;1.10;;
6013;SDS011;3035;49.928;8.410;2023-12-29T14:17:35;1.53;;;0.90;;
6013;SDS011;3035;49.928;8.410;2023-12-29T14:20:02;1.00;;;0.87;;
6013;SDS011;3035;49.928;8.410;2023-12-29T14:22:30;1.40;;;1.00;;
6013;SDS011;3035;49.928;8.410;2023-12-29T14:25:02;3.13;;;1.27;;
6013;SDS011;3035;49.928;8.410;2023-12-29T14:27:29;2.57;;;1.13;;
6013;SDS011;3035;49.928;8.410;2023-12-29T14:29:57;1.50;;;0.93;;
6013;SDS011;3035;49.928;8.410;2023-12-29T14:32:24;2.03;;;1.00;;
6013;SDS011;3035;49.928;8.410;2023-12-29T14:34:51;2.80;;;1.20;;
6013;SDS011;3035;49.928;8.410;2023-12-29T14:37:19;1.10;;;1.00;;
6013;SDS011;3035;49.928;8.410;2023-12-29T14:39:47;2.87;;;0.93;;
6013;SDS011;3035;49.928;8.410;2023-12-29T14:42:17;3.63;;;1.03;;
6013;SDS011;3035;49.928;8.410;2023-12-29T14:44:45;1.10;;;0.90;;
6013;SDS011;3035;49.928;8.410;2023-12-29T14:47:12;1.43;;;1.00;;
6013;SDS011;3035;49.928;8.410;2023-12-29T14:49:40;8.73;;;1.10;;
6013;SDS011;3035;49.928;8.410;2023-12-29T14:52:07;3.13;;;1.17;;
6013;SDS011;3035;49.928;8.410;2023-12-29T14:54:35;2.53;;;1.20;;
6013;SDS011;3035;49.928;8.410;2023-12-29T14:57:02;3.07;;;1.27;;
6013;SDS011;3035;49.928;8.410;2023-12-29T14:59:30;1.00;;;1.00;;
6013;SDS011;3035;49.928;8.410;2023-12-29T15:01:57;1.93;;;1.10;;
6013;SDS011;3035;49.928;8.410;2023-12-29T15:04:24;6.13;;;1.00;;
6013;SDS011;3035;49.928;8.410;2023-12-29T15:06:52;2.03;;;1.10;;
6013;SDS011;3035;49.928;8.410;2023-12-29T15:09:19;1.40;;;0.87;;
6013;SDS011;3035;49.928;8.410;2023-12-29T15:11:47;4.97;;;1.00;;
6013;SDS011;3035;49.928;8.410;2023-12-29T15:14:14;0.90;;;0.80;;
6013;SDS011;3035;49.928;8.410;2023-12-29T15:16:42;1.23;;;0.90;;
6013;SDS011;3035;49.928;8.410;2023-12-29T15:19:09;1.60;;;1.17;;
6013;SDS011;3035;49.928;8.410;2023-12-29T15:21:38;1.37;;;1.00;;
6013;SDS011;3035;49.928;8.410;2023-12-29T15:24:05;4.03;;;1.30;;
6013;SDS011;3035;49.928;8.410;2023-12-29T15:26:33;1.70;;;1.40;;
6013;SDS011;3035;49.928;8.410;2023-12-29T15:29:00;1.10;;;1.00;;
6013;SDS011;3035;49.928;8.410;2023-12-29T15:31:27;1.90;;;0.90;;
6013;SDS011;3035;49.928;8.410;2023-12-29T15:33:55;2.60;;;1.03;;
6013;SDS011;3035;49.928;8.410;2023-12-29T15:36:22;2.07;;;1.20;;
6013;SDS011;3035;49.928;8.410;2023-12-29T15:38:50;1.57;;;0.93;;
6013;SDS011;3035;49.928;8.410;2023-12-29T15:41:17;1.00;;;1.00;;